Time;durP1;ratioP1;P1;durP2;ratioP2;P2;SDS_P1;SDS_P2;PMS_P1;PMS_P2;Temp;Humidity;BMP_temperature;BMP_pressure;BME280_temperature;BME280_humidity;BME280_pressure;Samples;Min_cycle;Max_cycle;Signal;HPM_P1;HPM_P2
2022/01/19 00:00:50;;;;;;;;;;;;;;;;;;6215986;23;19904;-76
2022/01/19 00:03:16;;;;;;;;;;;;;;;;;;6215864;23;20388;-76
2022/01/19 00:05:42;;;;;;;;;;;;;;;;;;6215432;23;19999;-76
2022/01/19 00:08:08;;;;;;;;;;;;;;;;;;6215293;23;19923;-75
2022/01/19 00:10:34;;;;;;;;;;;;;;;;;;6215608;23;20341;-74
2022/01/19 00:13:00;;;;;;;;;;;;;;;;;;6215829;23;20193;-76
2022/01/19 00:15:25;;;;;;;;;;;;;;;;;;6216206;23;19931;-76
2022/01/19 00:17:57;;;;;;;;;;;;;;;;;;6215773;23;19904;-75
2022/01/19 00:20:23;;;;;;;;;;;;;;;;;;6215742;23;19915;-75
2022/01/19 00:22:49;;;;;;;;;;;;;;;;;;6214976;23;19940;-75
2022/01/19 00:25:15;;;;;;;;;;;;;;;;;;6215781;23;19904;-75
2022/01/19 00:27:41;;;;;;;;;;;;;;;;;;6215654;23;20230;-75
2022/01/19 00:30:07;;;;;;;;;;;;;;;;;;6215662;23;19911;-75
2022/01/19 00:32:33;;;;;;;;;;;;;;;;;;6216112;23;20341;-74
2022/01/19 00:34:59;;;;;;;;;;;;;;;;;;6215557;23;19904;-75
2022/01/19 00:37:25;;;;;;;;;;;;;;;;;;6215203;23;19908;-76
2022/01/19 00:39:51;;;;;;;;;;;;;;;;;;6215145;23;20285;-76
2022/01/19 00:42:17;;;;;;;;;;;;;;;;;;6215976;23;19904;-76
2022/01/19 00:44:43;;;;;;;;;;;;;;;;;;6215523;23;20326;-76
2022/01/19 00:47:09;;;;;;;;;;;;;;;;;;6215691;23;19911;-76
2022/01/19 00:49:35;;;;;;;;;;;;;;;;;;6215375;23;19904;-76
2022/01/19 00:52:00;;;;;;;;;;;;;;;;;;6215161;23;19927;-76
2022/01/19 00:54:26;;;;;;;;;;;;;;;;;;6214963;23;19912;-76
2022/01/19 00:56:52;;;;;;;;;;;;;;;;;;6214591;23;19904;-76
2022/01/19 00:59:18;;;;;;;;;;;;;;;;;;6215597;23;19973;-76
2022/01/19 01:01:44;;;;;;;;;;;;;;;;;;6215212;23;19911;-76
2022/01/19 01:04:10;;;;;;;;;;;;;;;;;;6215392;23;19908;-76
2022/01/19 01:06:36;;;;;;;;;;;;;;;;;;6214675;23;19904;-76
2022/01/19 01:09:02;;;;;;;;;;;;;;;;;;6214874;23;19927;-76
2022/01/19 01:11:35;;;;;;;;;;;;;;;;;;6188679;23;19908;-76
2022/01/19 01:16:36;;;;;;;;;;;;;;;;;;6215683;23;19979;-76
2022/01/19 01:19:02;;;;;;;;;;;;;;;;;;6215263;23;19908;-76
2022/01/19 01:21:28;;;;;;;;;;;;;;;;;;6214422;23;19911;-76
2022/01/19 01:23:54;;;;;;;;;;;;;;;;;;6214783;23;19923;-76
2022/01/19 01:26:20;;;;;;;;;;;;;;;;;;6215464;23;19912;-75
2022/01/19 01:28:46;;;;;;;;;;;;;;;;;;6214900;23;19911;-75
2022/01/19 01:31:11;;;;;;;;;;;;;;;;;;6188554;23;19908;-75
2022/01/19 01:33:37;;;;;;;;;;;;;;;;;;6214885;23;19966;-76
2022/01/19 01:36:03;;;;;;;;;;;;;;;;;;6214180;23;20319;-76
2022/01/19 01:38:29;;;;;;;;;;;;;;;;;;6215455;23;19911;-76
2022/01/19 01:40:55;;;;;;;;;;;;;;;;;;6214590;23;19911;-76
2022/01/19 01:43:21;;;;;;;;;;;;;;;;;;6215179;23;19904;-76
2022/01/19 01:45:51;;;;;;;;;;;;;;;;;;6214717;23;19954;-76
2022/01/19 01:48:20;;;;;;;;;;;;;;;;;;6215278;23;19904;-76
2022/01/19 01:53:31;;;;;;;;;;;;;;;;;;6214844;23;19911;-76
2022/01/19 01:55:57;;;;;;;;;;;;;;;;;;6214816;23;20254;-76
2022/01/19 01:58:23;;;;;;;;;;;;;;;;;;6214893;23;19911;-76
2022/01/19 02:00:49;;;;;;;;;;;;;;;;;;6214727;23;19910;-74
2022/01/19 02:03:15;;;;;;;;;;;;;;;;;;6214928;23;19987;-75
2022/01/19 02:05:53;;;;;;;;;;;;;;;;;;6214845;23;19915;-75
2022/01/19 02:08:22;;;;;;;;;;;;;;;;;;6214275;23;20254;-76
2022/01/19 02:16:26;;;;;;;;;;;;;;;;;;6214355;23;19987;-74
2022/01/19 02:24:08;;;;;;;;;;;;;;;;;;6214610;23;19908;-75
2022/01/19 02:42:37;;;;;;;;;;;;;;;;;;6122895;23;20000;-74
2022/01/19 02:49:58;;;;;;;;;;;;;;;;;;6122519;23;19905;-74
2022/01/19 02:52:24;;;;;;;;;;;;;;;;;;6122776;23;19928;-75
2022/01/19 02:54:50;;;;;;;;;;;;;;;;;;6122612;23;19909;-75
2022/01/19 02:57:16;;;;;;;;;;;;;;;;;;6098581;23;20290;-76
2022/01/19 03:06:32;;;;;;;;;;;;;;;;;;6214308;23;19911;-76
2022/01/19 03:10:32;;;;;;;;;;;;;;;;;;6214921;23;20345;-76
2022/01/19 03:12:58;;;;;;;;;;;;;;;;;;6214191;23;19904;-76
2022/01/19 03:15:24;;;;;;;;;;;;;;;;;;6214372;23;19954;-76
2022/01/19 03:17:50;;;;;;;;;;;;;;;;;;6214014;23;20341;-76
2022/01/19 03:20:16;;;;;;;;;;;;;;;;;;6214556;23;20242;-76
2022/01/19 03:23:04;;;;;;;;;;;;;;;;;;6216360;23;19954;-76
2022/01/19 03:25:30;;;;;;;;;;;;;;;;;;6216555;23;20326;-76
2022/01/19 03:27:56;;;;;;;;;;;;;;;;;;6216256;23;20364;-76
2022/01/19 03:30:22;;;;;;;;;;;;;;;;;;6216165;23;19904;-76
2022/01/19 03:32:48;;;;;;;;;;;;;;;;;;6215595;23;19904;-76
2022/01/19 03:35:13;;;;;;;;;;;;;;;;;;6216234;23;19958;-76
2022/01/19 03:37:39;;;;;;;;;;;;;;;;;;6216109;23;19908;-76
2022/01/19 03:40:05;;;;;;;;;;;;;;;;;;6216153;23;19963;-75
2022/01/19 03:42:31;;;;;;;;;;;;;;;;;;6216324;23;19904;-76
2022/01/19 03:44:57;;;;;;;;;;;;;;;;;;6215415;23;19911;-76
2022/01/19 03:47:26;;;;;;;;;;;;;;;;;;6216128;23;19904;-76
2022/01/19 03:49:52;;;;;;;;;;;;;;;;;;6216481;23;19911;-76
2022/01/19 03:52:18;;;;;;;;;;;;;;;;;;6216055;23;19983;-76
2022/01/19 03:54:44;;;;;;;;;;;;;;;;;;6216109;23;20294;-76
2022/01/19 03:57:10;;;;;;;;;;;;;;;;;;6215914;23;20104;-75
2022/01/19 03:59:35;;;;;;;;;;;;;;;;;;6215288;23;19912;-75
2022/01/19 04:02:02;;;;;;;;;;;;;;;;;;6215810;23;19926;-75
2022/01/19 04:07:07;;;;;;;;;;;;;;;;;;6215769;23;20366;-76
2022/01/19 04:09:33;;;;;;;;;;;;;;;;;;6215893;23;20326;-74
2022/01/19 04:11:59;;;;;;;;;;;;;;;;;;6216474;23;19958;-75
2022/01/19 04:14:25;;;;;;;;;;;;;;;;;;6215311;23;19908;-76
2022/01/19 04:16:52;;;;;;;;;;;;;;;;;;6215711;23;19932;-76
2022/01/19 04:21:46;;;;;;;;;;;;;;;;;;6215698;23;19936;-75
2022/01/19 04:24:12;;;;;;;;;;;;;;;;;;6215473;23;20224;-74
2022/01/19 04:26:38;;;;;;;;;;;;;;;;;;6215787;23;19907;-76
2022/01/19 04:29:04;;;;;;;;;;;;;;;;;;6215104;23;19911;-76
2022/01/19 04:31:30;;;;;;;;;;;;;;;;;;6215419;23;19919;-75
2022/01/19 04:34:01;;;;;;;;;;;;;;;;;;6215690;23;19904;-76
2022/01/19 04:37:39;;;;;;;;;;;;;;;;;;6215492;23;19947;-75
2022/01/19 04:45:09;;;;;;;;;;;;;;;;;;6215154;23;20349;-76
2022/01/19 05:03:54;;;;;;;;;;;;;;;;;;6123315;23;20274;-74
2022/01/19 05:06:21;;;;;;;;;;;;;;;;;;6123310;23;20045;-74
2022/01/19 05:08:57;;;;;;;;;;;;;;;;;;6123446;23;19927;-76
2022/01/19 05:14:07;;;;;;;;;;;;;;;;;;6122543;23;19915;-76
2022/01/19 05:16:33;;;;;;;;;;;;;;;;;;6123438;23;20339;-75
2022/01/19 05:18:59;;;;;;;;;;;;;;;;;;6123000;23;20402;-76
2022/01/19 05:21:25;;;;;;;;;;;;;;;;;;6122523;23;19913;-76
2022/01/19 05:23:51;;;;;;;;;;;;;;;;;;6122938;23;19928;-76
2022/01/19 05:26:17;;;;;;;;;;;;;;;;;;6123555;23;19905;-75
2022/01/19 05:28:43;;;;;;;;;;;;;;;;;;6157738;23;19904;-75
2022/01/19 05:31:09;;;;;;;;;;;;;;;;;;6215039;23;19904;-75
2022/01/19 05:33:35;;;;;;;;;;;;;;;;;;6214760;23;19904;-75
2022/01/19 05:36:01;;;;;;;;;;;;;;;;;;6214847;23;20309;-74
2022/01/19 05:38:26;;;;;;;;;;;;;;;;;;6214497;23;19958;-75
2022/01/19 05:40:52;;;;;;;;;;;;;;;;;;6215052;23;19907;-76
2022/01/19 05:43:18;;;;;;;;;;;;;;;;;;6213953;23;19908;-75
2022/01/19 05:45:44;;;;;;;;;;;;;;;;;;6215319;23;19904;-76
2022/01/19 05:48:10;;;;;;;;;;;;;;;;;;6215211;23;20240;-76
2022/01/19 05:50:36;;;;;;;;;;;;;;;;;;6214667;23;19910;-76
2022/01/19 05:53:02;;;;;;;;;;;;;;;;;;6214537;23;20011;-76
2022/01/19 05:55:28;;;;;;;;;;;;;;;;;;6214272;23;19904;-76
2022/01/19 05:57:54;;;;;;;;;;;;;;;;;;6214897;23;19954;-76
2022/01/19 06:00:20;;;;;;;;;;;;;;;;;;6214621;23;19919;-76
2022/01/19 06:02:45;;;;;;;;;;;;;;;;;;6214783;23;19904;-76
2022/01/19 06:05:11;;;;;;;;;;;;;;;;;;6214646;23;20249;-76
2022/01/19 06:07:44;;;;;;;;;;;;;;;;;;6214843;23;19979;-77
2022/01/19 06:10:11;;;;;;;;;;;;;;;;;;6214147;23;19991;-75
2022/01/19 06:12:37;;;;;;;;;;;;;;;;;;6214492;23;19904;-75
2022/01/19 06:15:03;;;;;;;;;;;;;;;;;;6214422;23;19910;-79
2022/01/19 06:17:29;;;;;;;;;;;;;;;;;;6214143;23;19908;-75
2022/01/19 06:19:55;;;;;;;;;;;;;;;;;;6214557;23;19924;-76
2022/01/19 06:22:21;;;;;;;;;;;;;;;;;;6213863;23;19915;-76
2022/01/19 06:24:47;;;;;;;;;;;;;;;;;;6213722;23;19908;-74
2022/01/19 07:21:45;;;;;;;;;;;;;;;;;;6213172;23;19924;-75
2022/01/19 07:24:12;;;;;;;;;;;;;;;;;;6215876;23;20314;-75
2022/01/19 07:26:38;;;;;;;;;;;;;;;;;;6215426;23;19912;-75
2022/01/19 07:29:04;;;;;;;;;;;;;;;;;;6215915;23;19910;-75
2022/01/19 07:31:30;;;;;;;;;;;;;;;;;;6216036;23;19900;-75
2022/01/19 07:33:55;;;;;;;;;;;;;;;;;;6216188;23;19911;-75
2022/01/19 07:36:21;;;;;;;;;;;;;;;;;;6216161;23;19904;-75
2022/01/19 07:38:47;;;;;;;;;;;;;;;;;;6214503;23;19958;-75
2022/01/19 07:41:13;;;;;;;;;;;;;;;;;;6215873;23;19955;-76
2022/01/19 07:43:39;;;;;;;;;;;;;;;;;;6215575;23;20360;-75
2022/01/19 07:46:05;;;;;;;;;;;;;;;;;;6189492;23;19983;-75
2022/01/19 07:48:31;;;;;;;;;;;;;;;;;;6216338;23;20321;-76
2022/01/19 07:50:57;;;;;;;;;;;;;;;;;;6218839;23;19982;-75
2022/01/19 07:53:23;;;;;;;;;;;;;;;;;;6214613;23;19911;-75
2022/01/19 07:55:50;;;;;;;;;;;;;;;;;;6215695;23;19904;-75
2022/01/19 07:58:16;;;;;;;;;;;;;;;;;;6216035;23;19950;-75
2022/01/19 08:00:42;;;;;;;;;;;;;;;;;;6215317;23;19908;-75
2022/01/19 08:03:08;;;;;;;;;;;;;;;;;;6216181;23;20186;-75
2022/01/19 08:05:34;;;;;;;;;;;;;;;;;;6188667;23;19904;-75
2022/01/19 08:08:01;;;;;;;;;;;;;;;;;;6188195;23;19983;-75
2022/01/19 08:10:29;;;;;;;;;;;;;;;;;;6215665;23;19910;-75
2022/01/19 08:12:55;;;;;;;;;;;;;;;;;;6215382;23;19911;-75
2022/01/19 08:15:21;;;;;;;;;;;;;;;;;;6216090;23;19908;-83
2022/01/19 08:17:46;;;;;;;;;;;;;;;;;;6215377;23;20282;-75
2022/01/19 08:20:12;;;;;;;;;;;;;;;;;;6215159;23;20360;-75
2022/01/19 08:22:38;;;;;;;;;;;;;;;;;;6215089;23;19904;-76
2022/01/19 08:25:04;;;;;;;;;;;;;;;;;;6215549;23;19915;-75
2022/01/19 08:27:30;;;;;;;;;;;;;;;;;;6215829;23;19906;-75
2022/01/19 08:29:57;;;;;;;;;;;;;;;;;;6188501;23;19904;-76
2022/01/19 08:32:23;;;;;;;;;;;;;;;;;;6215442;23;19900;-75
2022/01/19 08:34:49;;;;;;;;;;;;;;;;;;6214876;23;19987;-77
2022/01/19 08:37:15;;;;;;;;;;;;;;;;;;6214848;23;19967;-75
2022/01/19 08:39:41;;;;;;;;;;;;;;;;;;6214982;23;19911;-75
2022/01/19 08:42:07;;;;;;;;;;;;;;;;;;6188419;23;19904;-75
2022/01/19 08:44:33;;;;;;;;;;;;;;;;;;6215013;23;19987;-75
2022/01/19 08:46:59;;;;;;;;;;;;;;;;;;6214913;23;19987;-75
2022/01/19 08:49:25;;;;;;;;;;;;;;;;;;6214851;23;19912;-75
2022/01/19 08:51:51;;;;;;;;;;;;;;;;;;6215460;23;19904;-75
2022/01/19 08:54:17;;;;;;;;;;;;;;;;;;6215013;23;20218;-75
2022/01/19 08:56:43;;;;;;;;;;;;;;;;;;6215032;23;19900;-75
2022/01/19 08:59:09;;;;;;;;;;;;;;;;;;6215103;23;19918;-75
2022/01/19 09:01:35;;;;;;;;;;;;;;;;;;6215066;23;19950;-76
2022/01/19 09:04:01;;;;;;;;;;;;;;;;;;6189001;23;20385;-75
2022/01/19 09:06:26;;;;;;;;;;;;;;;;;;6216181;23;19943;-75
2022/01/19 09:08:52;;;;;;;;;;;;;;;;;;6216033;23;19986;-75
2022/01/19 09:11:18;;;;;;;;;;;;;;;;;;6215885;23;20304;-75
2022/01/19 09:13:44;;;;;;;;;;;;;;;;;;6215884;23;19915;-75
2022/01/19 09:16:10;;;;;;;;;;;;;;;;;;6215093;23;19904;-75
2022/01/19 09:18:36;;;;;;;;;;;;;;;;;;6187859;23;19904;-75
2022/01/19 09:21:02;;;;;;;;;;;;;;;;;;6214387;23;20346;-84
2022/01/19 09:23:28;;;;;;;;;;;;;;;;;;6215153;23;20003;-77
2022/01/19 09:25:54;;;;;;;;;;;;;;;;;;6214408;23;19904;-75
2022/01/19 09:28:20;;;;;;;;;;;;;;;;;;6215287;23;19908;-75
2022/01/19 09:30:45;;;;;;;;;;;;;;;;;;6214867;23;19911;-75
2022/01/19 09:33:19;;;;;;;;;;;;;;;;;;6214494;23;20329;-75
2022/01/19 09:36:17;;;;;;;;;;;;;;;;;;6214590;23;20208;-75
2022/01/19 09:38:35;;;;;;;;;;;;;;;;;;6212962;23;19904;-75
2022/01/19 09:41:01;;;;;;;;;;;;;;;;;;6215123;23;19935;-75
2022/01/19 09:43:27;;;;;;;;;;;;;;;;;;6214878;23;19907;-75
2022/01/19 09:45:53;;;;;;;;;;;;;;;;;;6188118;23;19904;-75
2022/01/19 09:48:19;;;;;;;;;;;;;;;;;;6214127;23;19911;-75
2022/01/19 09:50:44;;;;;;;;;;;;;;;;;;6215224;23;20318;-75
2022/01/19 09:53:10;;;;;;;;;;;;;;;;;;6214764;23;19958;-75
2022/01/19 09:55:38;;;;;;;;;;;;;;;;;;6214599;23;19904;-75
2022/01/19 09:58:04;;;;;;;;;;;;;;;;;;6214496;23;19904;-75
2022/01/19 10:00:29;;;;;;;;;;;;;;;;;;6214950;23;19908;-75
2022/01/19 10:02:55;;;;;;;;;;;;;;;;;;6188126;23;20249;-75
2022/01/19 10:05:21;;;;;;;;;;;;;;;;;;6214284;23;19908;-76
2022/01/19 10:07:47;;;;;;;;;;;;;;;;;;6214536;23;19908;-76
2022/01/19 10:10:15;;;;;;;;;;;;;;;;;;6214651;23;19904;-76
2022/01/19 10:18:11;;;;;;;;;;;;;;;;;;6214176;23;19911;-76
2022/01/19 10:20:37;;;;;;;;;;;;;;;;;;6187694;23;20302;-75
2022/01/19 10:23:03;;;;;;;;;;;;;;;;;;6214484;23;19900;-75
2022/01/19 10:25:28;;;;;;;;;;;;;;;;;;6188395;23;19915;-75
2022/01/19 10:27:54;;;;;;;;;;;;;;;;;;6214335;23;19900;-75
2022/01/19 10:30:22;;;;;;;;;;;;;;;;;;6187796;23;20338;-76
2022/01/19 10:32:48;;;;;;;;;;;;;;;;;;6186680;23;19900;-76
2022/01/19 10:35:15;;;;;;;;;;;;;;;;;;6213967;23;19991;-76
2022/01/19 10:37:40;;;;;;;;;;;;;;;;;;6214701;23;19907;-75
2022/01/19 10:40:06;;;;;;;;;;;;;;;;;;6213845;23;19908;-75
2022/01/19 10:42:34;;;;;;;;;;;;;;;;;;6214633;23;20352;-76
2022/01/19 10:45:00;;;;;;;;;;;;;;;;;;6214125;23;19904;-76
2022/01/19 10:47:26;;;;;;;;;;;;;;;;;;6213391;23;19911;-76
2022/01/19 10:49:53;;;;;;;;;;;;;;;;;;6214330;23;19904;-77
2022/01/19 11:39:03;;;;;;;;;;;;;;;;;;6173715;23;21363;-78
2022/01/19 11:41:29;;;;;;;;;;;;;;;;;;6213579;23;19908;-75
2022/01/19 11:43:55;;;;;;;;;;;;;;;;;;6215234;23;19907;-75
2022/01/19 11:46:21;;;;;;;;;;;;;;;;;;6215187;23;19908;-76
2022/01/19 11:48:46;;;;;;;;;;;;;;;;;;6215302;23;19904;-75
2022/01/19 11:51:12;;;;;;;;;;;;;;;;;;6215528;23;19927;-75
2022/01/19 11:53:38;;;;;;;;;;;;;;;;;;6215536;23;19953;-75
2022/01/19 11:56:04;;;;;;;;;;;;;;;;;;6215152;23;19904;-75
2022/01/19 11:58:30;;;;;;;;;;;;;;;;;;6215486;23;19931;-75
2022/01/19 12:00:56;;;;;;;;;;;;;;;;;;6188919;23;20300;-76
2022/01/19 12:03:22;;;;;;;;;;;;;;;;;;6215408;23;19930;-76
2022/01/19 12:05:50;;;;;;;;;;;;;;;;;;6216643;23;19904;-76
2022/01/19 12:08:16;;;;;;;;;;;;;;;;;;6216196;23;19911;-76
2022/01/19 12:10:44;;;;;;;;;;;;;;;;;;6189854;23;19904;-77
2022/01/19 12:13:10;;;;;;;;;;;;;;;;;;6216422;23;19911;-77
2022/01/19 12:15:36;;;;;;;;;;;;;;;;;;6216007;23;19932;-77
2022/01/19 12:18:09;;;;;;;;;;;;;;;;;;6215885;23;19984;-77
2022/01/19 12:20:35;;;;;;;;;;;;;;;;;;6216043;23;19987;-76
2022/01/19 12:23:01;;;;;;;;;;;;;;;;;;6188666;23;19935;-77
2022/01/19 12:25:27;;;;;;;;;;;;;;;;;;6215567;23;19935;-76
2022/01/19 12:27:56;;;;;;;;;;;;;;;;;;6215599;23;19983;-77
2022/01/19 12:30:24;;;;;;;;;;;;;;;;;;6215664;23;19907;-77
2022/01/19 12:32:50;;;;;;;;;;;;;;;;;;6215660;23;19979;-77
2022/01/19 12:35:16;;;;;;;;;;;;;;;;;;6215523;23;19998;-76
2022/01/19 12:37:42;;;;;;;;;;;;;;;;;;6215644;23;19907;-76
2022/01/19 12:40:08;;;;;;;;;;;;;;;;;;6215519;23;19951;-77
2022/01/19 12:42:39;;;;;;;;;;;;;;;;;;6214688;23;19904;-77
2022/01/19 12:45:05;;;;;;;;;;;;;;;;;;6188849;23;19979;-77
2022/01/19 12:47:31;;;;;;;;;;;;;;;;;;6215945;23;20302;-77
2022/01/19 12:49:57;;;;;;;;;;;;;;;;;;6188928;23;19936;-77
2022/01/19 12:52:23;;;;;;;;;;;;;;;;;;6214634;23;19931;-77
2022/01/19 12:54:49;;;;;;;;;;;;;;;;;;6215231;23;20397;-76
2022/01/19 12:57:15;;;;;;;;;;;;;;;;;;6214607;23;19907;-77
2022/01/19 12:59:41;;;;;;;;;;;;;;;;;;6215284;23;19915;-77
2022/01/19 13:02:07;;;;;;;;;;;;;;;;;;6188623;23;19908;-77
2022/01/19 13:04:33;;;;;;;;;;;;;;;;;;6214879;23;19904;-76
2022/01/19 13:06:59;;;;;;;;;;;;;;;;;;6215143;23;19915;-77
2022/01/19 13:09:32;;;;;;;;;;;;;;;;;;6214638;23;20254;-77
2022/01/19 13:12:01;;;;;;;;;;;;;;;;;;6214826;23;20345;-77
2022/01/19 13:14:29;;;;;;;;;;;;;;;;;;6214800;23;19911;-76
2022/01/19 13:16:55;;;;;;;;;;;;;;;;;;6215037;23;19908;-77
2022/01/19 13:19:21;;;;;;;;;;;;;;;;;;6214641;23;20334;-77
2022/01/19 13:21:47;;;;;;;;;;;;;;;;;;6215107;23;19908;-79
2022/01/19 13:24:20;;;;;;;;;;;;;;;;;;6215230;23;19900;-77
2022/01/19 13:26:46;;;;;;;;;;;;;;;;;;6187417;23;19953;-76
2022/01/19 13:29:12;;;;;;;;;;;;;;;;;;6215274;23;19907;-76
2022/01/19 13:31:38;;;;;;;;;;;;;;;;;;6215858;23;19904;-76
2022/01/19 13:34:04;;;;;;;;;;;;;;;;;;6216270;23;20233;-77
2022/01/19 13:36:29;;;;;;;;;;;;;;;;;;6189252;23;19923;-77
2022/01/19 13:38:55;;;;;;;;;;;;;;;;;;6216011;23;19904;-77
2022/01/19 13:41:21;;;;;;;;;;;;;;;;;;6215320;23;19904;-76
2022/01/19 13:43:47;;;;;;;;;;;;;;;;;;6216032;23;20237;-76
2022/01/19 13:46:14;;;;;;;;;;;;;;;;;;6215800;23;19908;-77
2022/01/19 13:48:40;;;;;;;;;;;;;;;;;;6215450;23;19911;-76
2022/01/19 13:51:06;;;;;;;;;;;;;;;;;;6216143;23;19900;-77
2022/01/19 13:53:33;;;;;;;;;;;;;;;;;;6215756;23;19927;-76
2022/01/19 13:55:59;;;;;;;;;;;;;;;;;;6215433;23;19911;-76
2022/01/19 13:58:25;;;;;;;;;;;;;;;;;;6215897;23;19904;-76
2022/01/19 14:00:51;;;;;;;;;;;;;;;;;;6214676;23;19908;-77
2022/01/19 14:03:17;;;;;;;;;;;;;;;;;;6214900;23;19908;-76
2022/01/19 14:05:43;;;;;;;;;;;;;;;;;;6214836;23;20311;-76
2022/01/19 14:08:09;;;;;;;;;;;;;;;;;;6214687;23;19904;-77
2022/01/19 14:10:35;;;;;;;;;;;;;;;;;;6214144;23;19983;-77
2022/01/19 14:13:01;;;;;;;;;;;;;;;;;;6214497;23;19935;-76
2022/01/19 14:15:27;;;;;;;;;;;;;;;;;;6214518;23;19978;-76
2022/01/19 14:17:53;;;;;;;;;;;;;;;;;;6214289;23;19915;-77
2022/01/19 14:20:21;;;;;;;;;;;;;;;;;;6214981;23;19908;-77
2022/01/19 14:22:47;;;;;;;;;;;;;;;;;;6215134;23;19903;-76
2022/01/19 14:25:13;;;;;;;;;;;;;;;;;;6188564;23;20262;-76
2022/01/19 14:27:39;;;;;;;;;;;;;;;;;;6215329;23;19911;-77
2022/01/19 14:30:05;;;;;;;;;;;;;;;;;;6215382;23;19904;-77
2022/01/19 14:32:31;;;;;;;;;;;;;;;;;;6188772;23;19912;-76
2022/01/19 14:34:57;;;;;;;;;;;;;;;;;;6215064;23;19939;-76
2022/01/19 14:37:23;;;;;;;;;;;;;;;;;;6214357;23;19911;-76
2022/01/19 14:39:49;;;;;;;;;;;;;;;;;;6213590;23;19951;-77
2022/01/19 14:42:16;;;;;;;;;;;;;;;;;;6215439;23;19924;-77
2022/01/19 14:44:57;;;;;;;;;;;;;;;;;;6215343;23;19979;-77
2022/01/19 14:47:27;;;;;;;;;;;;;;;;;;6215048;23;19904;-76
2022/01/19 14:49:53;;;;;;;;;;;;;;;;;;6188836;23;19900;-76
2022/01/19 14:52:19;;;;;;;;;;;;;;;;;;6215137;23;19950;-76
2022/01/19 14:54:45;;;;;;;;;;;;;;;;;;6215132;23;19975;-76
2022/01/19 14:57:11;;;;;;;;;;;;;;;;;;6216065;23;19934;-75
2022/01/19 14:59:37;;;;;;;;;;;;;;;;;;6214600;23;20260;-75
2022/01/19 15:02:03;;;;;;;;;;;;;;;;;;6214973;23;19927;-76
2022/01/19 15:04:29;;;;;;;;;;;;;;;;;;6213738;23;19932;-78
2022/01/19 15:06:59;;;;;;;;;;;;;;;;;;6214835;23;20779;-79
2022/01/19 15:09:25;;;;;;;;;;;;;;;;;;6215042;23;19910;-79
2022/01/19 15:11:50;;;;;;;;;;;;;;;;;;6214280;23;19990;-79
2022/01/19 15:14:16;;;;;;;;;;;;;;;;;;6215299;23;20009;-79
2022/01/19 15:16:42;;;;;;;;;;;;;;;;;;6215605;23;19982;-79
2022/01/19 15:19:08;;;;;;;;;;;;;;;;;;6217552;23;20314;-79
2022/01/19 15:21:34;;;;;;;;;;;;;;;;;;6217146;23;19986;-76
2022/01/19 15:24:00;;;;;;;;;;;;;;;;;;6217182;23;19919;-76
2022/01/19 15:26:26;;;;;;;;;;;;;;;;;;6217465;23;19904;-76
2022/01/19 15:28:52;;;;;;;;;;;;;;;;;;6217384;23;19908;-76
2022/01/19 15:31:18;;;;;;;;;;;;;;;;;;6216497;23;20432;-76
2022/01/19 15:33:44;;;;;;;;;;;;;;;;;;6216667;23;19904;-76
2022/01/19 15:36:10;;;;;;;;;;;;;;;;;;6216279;23;19935;-76
2022/01/19 15:38:36;;;;;;;;;;;;;;;;;;6216609;23;19904;-77
2022/01/19 15:41:02;;;;;;;;;;;;;;;;;;6189708;23;20294;-78
2022/01/19 15:43:27;;;;;;;;;;;;;;;;;;6216914;23;19907;-77
2022/01/19 15:45:53;;;;;;;;;;;;;;;;;;6216837;23;19904;-77
2022/01/19 15:48:20;;;;;;;;;;;;;;;;;;6217352;23;19953;-78
2022/01/19 15:50:45;;;;;;;;;;;;;;;;;;6216844;23;19907;-76
2022/01/19 15:53:11;;;;;;;;;;;;;;;;;;6190710;23;19904;-77
2022/01/19 15:55:37;;;;;;;;;;;;;;;;;;6216059;23;19976;-77
2022/01/19 15:58:03;;;;;;;;;;;;;;;;;;6216552;23;19908;-76
2022/01/19 16:00:29;;;;;;;;;;;;;;;;;;6216158;23;19914;-77
2022/01/19 16:02:55;;;;;;;;;;;;;;;;;;6216374;23;20207;-77
2022/01/19 16:05:21;;;;;;;;;;;;;;;;;;6216700;23;19932;-76
2022/01/19 16:07:47;;;;;;;;;;;;;;;;;;6216512;23;19985;-77
2022/01/19 16:10:13;;;;;;;;;;;;;;;;;;6217161;23;19958;-76
2022/01/19 16:12:39;;;;;;;;;;;;;;;;;;6217205;23;19983;-77
2022/01/19 16:15:05;;;;;;;;;;;;;;;;;;6216903;23;19908;-80
2022/01/19 16:17:31;;;;;;;;;;;;;;;;;;6217261;23;19904;-76
2022/01/19 16:19:57;;;;;;;;;;;;;;;;;;6216155;23;19907;-76
2022/01/19 16:27:52;;;;;;;;;;;;;;;;;;6216524;23;20257;-76
2022/01/19 16:30:18;;;;;;;;;;;;;;;;;;6216233;23;19916;-77
2022/01/19 16:32:44;;;;;;;;;;;;;;;;;;6216736;23;20333;-76
2022/01/19 16:35:10;;;;;;;;;;;;;;;;;;6216136;23;19904;-76
2022/01/19 16:37:35;;;;;;;;;;;;;;;;;;6216687;23;19904;-76
2022/01/19 16:40:01;;;;;;;;;;;;;;;;;;6215839;23;20373;-76
2022/01/19 16:42:27;;;;;;;;;;;;;;;;;;6216570;23;20226;-75
2022/01/19 16:44:54;;;;;;;;;;;;;;;;;;6216496;23;19904;-78
2022/01/19 16:47:20;;;;;;;;;;;;;;;;;;6216467;23;19927;-78
2022/01/19 16:49:47;;;;;;;;;;;;;;;;;;6216922;23;19983;-75
2022/01/19 16:52:15;;;;;;;;;;;;;;;;;;6216573;23;19936;-75
2022/01/19 16:54:41;;;;;;;;;;;;;;;;;;6189698;23;20353;-77
2022/01/19 16:57:07;;;;;;;;;;;;;;;;;;6216926;23;19900;-77
2022/01/19 16:59:32;;;;;;;;;;;;;;;;;;6216217;23;19908;-77
2022/01/19 17:01:58;;;;;;;;;;;;;;;;;;6216351;23;20408;-77
2022/01/19 17:04:24;;;;;;;;;;;;;;;;;;6215905;23;19967;-77
2022/01/19 17:06:50;;;;;;;;;;;;;;;;;;6216349;23;19904;-78
2022/01/19 17:09:16;;;;;;;;;;;;;;;;;;6216217;23;19904;-77
2022/01/19 17:11:46;;;;;;;;;;;;;;;;;;6216200;23;19935;-77
2022/01/19 17:14:19;;;;;;;;;;;;;;;;;;6216184;23;19904;-78
2022/01/19 17:16:55;;;;;;;;;;;;;;;;;;6216282;23;19940;-75
2022/01/19 17:19:24;;;;;;;;;;;;;;;;;;6188097;23;19930;-75
2022/01/19 17:21:50;;;;;;;;;;;;;;;;;;6216531;23;19904;-80
2022/01/19 17:24:18;;;;;;;;;;;;;;;;;;6215608;23;20318;-81
2022/01/19 17:26:44;;;;;;;;;;;;;;;;;;6216449;23;19904;-81
2022/01/19 17:29:10;;;;;;;;;;;;;;;;;;6216121;23;19899;-80
2022/01/19 17:31:36;;;;;;;;;;;;;;;;;;6215541;23;19915;-81
2022/01/19 17:34:03;;;;;;;;;;;;;;;;;;6215974;23;19979;-78
2022/01/19 17:36:29;;;;;;;;;;;;;;;;;;6214463;23;19908;-80
2022/01/19 17:38:54;;;;;;;;;;;;;;;;;;6214532;23;19910;-81
2022/01/19 17:41:20;;;;;;;;;;;;;;;;;;6214890;23;19943;-80
2022/01/19 17:43:50;;;;;;;;;;;;;;;;;;6215519;23;19904;-80
2022/01/19 17:46:23;;;;;;;;;;;;;;;;;;6215139;23;19908;-81
2022/01/19 17:49:02;;;;;;;;;;;;;;;;;;6215453;23;20326;-80
2022/01/19 17:51:44;;;;;;;;;;;;;;;;;;6215630;23;19904;-79
2022/01/19 17:54:10;;;;;;;;;;;;;;;;;;6215495;23;19911;-81
2022/01/19 17:56:36;;;;;;;;;;;;;;;;;;6215241;23;20552;-81
2022/01/19 17:59:02;;;;;;;;;;;;;;;;;;6215876;23;19987;-81
2022/01/19 18:01:29;;;;;;;;;;;;;;;;;;6214603;23;20227;-80
2022/01/19 18:03:55;;;;;;;;;;;;;;;;;;6215513;23;20263;-80
2022/01/19 18:06:21;;;;;;;;;;;;;;;;;;6215754;23;19928;-80
2022/01/19 18:08:47;;;;;;;;;;;;;;;;;;6215682;23;20245;-78
2022/01/19 18:11:13;;;;;;;;;;;;;;;;;;6215963;23;20031;-79
2022/01/19 18:13:39;;;;;;;;;;;;;;;;;;6215148;23;20371;-80
2022/01/19 18:16:20;;;;;;;;;;;;;;;;;;6215463;23;20326;-81
2022/01/19 18:18:46;;;;;;;;;;;;;;;;;;6215530;23;19915;-81
2022/01/19 18:21:12;;;;;;;;;;;;;;;;;;6215730;23;19908;-80
2022/01/19 18:23:38;;;;;;;;;;;;;;;;;;6215397;23;19942;-81
2022/01/19 18:26:04;;;;;;;;;;;;;;;;;;6215561;23;19928;-77
2022/01/19 18:28:30;;;;;;;;;;;;;;;;;;6215129;23;20322;-79
2022/01/19 18:30:56;;;;;;;;;;;;;;;;;;6215518;23;19911;-80
2022/01/19 18:33:22;;;;;;;;;;;;;;;;;;6215113;23;19910;-76
2022/01/19 18:35:48;;;;;;;;;;;;;;;;;;6214946;23;19974;-79
2022/01/19 18:38:14;;;;;;;;;;;;;;;;;;6214953;23;19910;-80
2022/01/19 18:40:40;;;;;;;;;;;;;;;;;;6214786;23;19916;-79
2022/01/19 18:43:06;;;;;;;;;;;;;;;;;;6215561;23;20402;-80
2022/01/19 18:45:32;;;;;;;;;;;;;;;;;;6186594;23;19931;-78
2022/01/19 18:47:58;;;;;;;;;;;;;;;;;;6213757;23;19903;-80
2022/01/19 18:50:25;;;;;;;;;;;;;;;;;;6214365;23;20346;-80
2022/01/19 18:52:51;;;;;;;;;;;;;;;;;;6214540;23;19904;-78
2022/01/19 18:55:17;;;;;;;;;;;;;;;;;;6215479;23;20286;-80
2022/01/19 18:57:43;;;;;;;;;;;;;;;;;;6214788;23;19938;-81
2022/01/19 19:00:09;;;;;;;;;;;;;;;;;;6214652;23;19908;-79
2022/01/19 19:02:36;;;;;;;;;;;;;;;;;;6215199;23;20239;-79
2022/01/19 19:05:02;;;;;;;;;;;;;;;;;;6214951;23;20324;-79
2022/01/19 19:07:28;;;;;;;;;;;;;;;;;;6189279;23;19931;-77
2022/01/19 19:10:13;;;;;;;;;;;;;;;;;;6214353;23;19939;-77
2022/01/19 19:12:39;;;;;;;;;;;;;;;;;;6215337;23;19904;-78
2022/01/19 19:15:05;;;;;;;;;;;;;;;;;;6214279;23;19946;-80
2022/01/19 19:17:31;;;;;;;;;;;;;;;;;;6215191;23;19950;-79
2022/01/19 19:19:56;;;;;;;;;;;;;;;;;;6214909;23;19946;-78
2022/01/19 19:22:23;;;;;;;;;;;;;;;;;;6215459;23;19975;-78
2022/01/19 19:24:49;;;;;;;;;;;;;;;;;;6214866;23;20340;-78
2022/01/19 19:27:15;;;;;;;;;;;;;;;;;;6215311;23;19908;-76
2022/01/19 19:29:41;;;;;;;;;;;;;;;;;;6214945;23;19911;-78
2022/01/19 19:32:07;;;;;;;;;;;;;;;;;;6214654;23;19904;-78
2022/01/19 19:34:33;;;;;;;;;;;;;;;;;;6214664;23;19922;-78
2022/01/19 19:36:59;;;;;;;;;;;;;;;;;;6214560;23;19904;-78
2022/01/19 19:39:25;;;;;;;;;;;;;;;;;;6214754;23;19916;-79
2022/01/19 19:41:51;;;;;;;;;;;;;;;;;;6187932;23;20380;-79
2022/01/19 19:44:17;;;;;;;;;;;;;;;;;;6214675;23;19986;-79
2022/01/19 19:46:43;;;;;;;;;;;;;;;;;;6188081;23;19984;-80
2022/01/19 19:49:09;;;;;;;;;;;;;;;;;;6214564;23;20226;-79